createdAt,value
2022-09-10T00:01:19.778Z,95.60
2022-09-10T00:03:48.074Z,95.80
2022-09-10T00:06:14.370Z,95.50
2022-09-10T00:08:40.418Z,95.40
2022-09-10T00:11:09.100Z,95.50
2022-09-10T00:13:38.647Z,95.50
2022-09-10T00:16:08.595Z,95.50
2022-09-10T00:18:35.968Z,95.40
2022-09-10T00:21:07.413Z,95.30
2022-09-10T00:23:34.091Z,95.20
2022-09-10T00:26:08.078Z,95.30
2022-09-10T00:28:34.262Z,95.30
2022-09-10T00:31:03.235Z,95.30
2022-09-10T00:33:29.756Z,95.60
2022-09-10T00:35:57.107Z,95.80
2022-09-10T00:38:23.525Z,95.90
2022-09-10T00:40:50.030Z,96.10
2022-09-10T00:43:19.873Z,96.10
2022-09-10T00:45:54.714Z,96.40
2022-09-10T00:48:30.395Z,96.50
2022-09-10T00:51:01.349Z,96.70
2022-09-10T00:53:28.692Z,96.80
2022-09-10T00:55:58.322Z,97.00
2022-09-10T00:58:28.287Z,97.20
2022-09-10T01:01:01.061Z,97.30
2022-09-10T01:03:32.200Z,97.50
2022-09-10T01:05:58.887Z,97.50
2022-09-10T01:08:26.823Z,97.60
2022-09-10T01:11:26.685Z,97.60
2022-09-10T01:14:21.444Z,97.70
2022-09-10T01:17:03.187Z,97.90
2022-09-10T01:20:06.341Z,98.30
2022-09-10T01:23:00.629Z,97.90
2022-09-10T01:25:48.948Z,98.00
2022-09-10T01:28:21.558Z,98.10
2022-09-10T01:30:54.765Z,98.10
2022-09-10T01:33:28.840Z,98.00
2022-09-10T01:36:09.185Z,98.10
2022-09-10T01:38:38.456Z,98.10
2022-09-10T01:41:05.203Z,98.20
2022-09-10T01:43:31.415Z,98.10
2022-09-10T01:46:18.045Z,98.20
2022-09-10T01:49:04.471Z,98.20
2022-09-10T01:51:46.632Z,98.20
2022-09-10T01:54:24.823Z,98.10
2022-09-10T01:57:30.834Z,98.10
2022-09-10T02:00:11.153Z,98.20
2022-09-10T02:02:41.406Z,98.20
2022-09-10T02:05:08.771Z,98.30
2022-09-10T02:07:36.580Z,98.60
2022-09-10T02:10:04.349Z,98.40
2022-09-10T02:12:30.732Z,98.40
2022-09-10T02:14:57.714Z,98.40
2022-09-10T02:17:32.944Z,98.30
2022-09-10T02:20:01.446Z,98.30
2022-09-10T02:22:30.142Z,98.30
2022-09-10T02:24:56.563Z,98.30
2022-09-10T02:27:23.008Z,98.30
2022-09-10T02:29:49.550Z,98.20
2022-09-10T02:32:16.713Z,98.40
2022-09-10T02:34:43.042Z,98.20
2022-09-10T02:37:09.097Z,98.20
2022-09-10T02:39:35.538Z,98.10
2022-09-10T02:42:01.644Z,98.10
2022-09-10T02:44:28.299Z,98.00
2022-09-10T02:46:54.928Z,98.00
2022-09-10T02:49:21.327Z,98.00
2022-09-10T02:51:49.781Z,98.00
2022-09-10T02:54:16.235Z,98.00
2022-09-10T02:56:42.892Z,98.00
2022-09-10T02:59:09.288Z,98.00
2022-09-10T03:01:36.138Z,97.90
2022-09-10T03:04:02.953Z,98.00
2022-09-10T03:06:29.439Z,98.00
2022-09-10T03:08:57.066Z,98.00
2022-09-10T03:11:24.659Z,98.00
2022-09-10T03:13:51.125Z,98.00
2022-09-10T03:16:17.888Z,98.00
2022-09-10T03:18:44.798Z,98.00
2022-09-10T03:21:29.269Z,98.00
2022-09-10T03:23:56.874Z,97.90
2022-09-10T03:26:27.529Z,97.90
2022-09-10T03:28:53.634Z,97.80
2022-09-10T03:31:21.094Z,97.70
2022-09-10T03:33:47.222Z,97.70
2022-09-10T03:36:13.636Z,98.00
2022-09-10T03:38:40.706Z,97.60
2022-09-10T03:41:07.053Z,97.50
2022-09-10T03:43:33.094Z,97.60
2022-09-10T03:45:59.164Z,97.80
2022-09-10T03:48:25.312Z,97.80
2022-09-10T03:50:51.657Z,98.10
2022-09-10T03:53:18.948Z,97.70
2022-09-10T03:55:47.000Z,97.70
2022-09-10T03:58:14.075Z,97.80
2022-09-10T04:00:40.225Z,97.80
2022-09-10T04:03:06.708Z,97.70
2022-09-10T04:05:33.100Z,97.70
2022-09-10T04:07:59.497Z,97.80
2022-09-10T04:10:26.309Z,97.70
2022-09-10T04:12:56.292Z,97.70
2022-09-10T04:15:24.180Z,97.60
2022-09-10T04:17:54.601Z,97.70
2022-09-10T04:20:23.160Z,97.60
2022-09-10T04:22:53.169Z,97.60
2022-09-10T04:25:19.624Z,97.70
2022-09-10T04:27:46.432Z,97.70
2022-09-10T04:30:13.212Z,97.70
2022-09-10T04:32:39.646Z,97.70
2022-09-10T04:35:06.706Z,97.60
2022-09-10T04:37:33.533Z,97.60
2022-09-10T04:39:59.809Z,97.70
2022-09-10T04:42:26.181Z,97.70
2022-09-10T04:44:52.424Z,97.60
2022-09-10T04:47:18.765Z,97.60
2022-09-10T04:49:44.829Z,97.50
2022-09-10T04:52:11.932Z,97.50
2022-09-10T04:54:38.889Z,97.50
2022-09-10T04:57:06.102Z,97.50
2022-09-10T04:59:32.683Z,97.50
2022-09-10T05:01:58.793Z,97.40
2022-09-10T05:04:25.229Z,97.50
2022-09-10T05:06:52.626Z,97.50
2022-09-10T05:09:19.855Z,97.50
2022-09-10T05:11:46.803Z,97.80
2022-09-10T05:14:13.363Z,97.50
2022-09-10T05:16:40.213Z,97.50
2022-09-10T05:19:06.984Z,97.40
2022-09-10T05:21:33.399Z,97.40
2022-09-10T05:23:59.801Z,97.40
2022-09-10T05:26:27.098Z,97.40
2022-09-10T05:28:54.445Z,97.40
2022-09-10T05:31:21.142Z,97.40
2022-09-10T05:33:47.291Z,97.50
2022-09-10T05:36:14.270Z,97.50
2022-09-10T05:38:40.792Z,97.40
2022-09-10T05:41:10.439Z,97.30
2022-09-10T05:43:36.681Z,97.40
2022-09-10T05:46:04.084Z,97.40
2022-09-10T05:48:30.744Z,97.40
2022-09-10T05:50:57.539Z,97.40
2022-09-10T05:53:24.193Z,97.40
2022-09-10T05:55:50.562Z,97.40
2022-09-10T05:58:16.651Z,97.40
2022-09-10T06:00:42.756Z,97.30
2022-09-10T06:03:09.753Z,97.30
2022-09-10T06:05:36.025Z,97.20
2022-09-10T06:08:07.879Z,97.30
2022-09-10T06:10:35.211Z,97.30
2022-09-10T06:13:01.416Z,97.30
2022-09-10T06:15:27.623Z,97.30
2022-09-10T06:17:55.920Z,97.30
2022-09-10T06:20:22.912Z,97.30
2022-09-10T06:22:49.052Z,97.20
2022-09-10T06:25:15.161Z,97.00
2022-09-10T06:27:41.497Z,96.90
2022-09-10T06:30:08.156Z,96.90
2022-09-10T06:32:34.220Z,96.80
2022-09-10T06:35:00.381Z,96.80
2022-09-10T06:37:26.517Z,97.00
2022-09-10T06:39:53.388Z,97.00
2022-09-10T06:42:19.544Z,96.60
2022-09-10T06:44:45.901Z,96.20
2022-09-10T06:47:55.806Z,95.80
2022-09-10T06:49:59.448Z,95.60
2022-09-10T06:52:28.359Z,95.40
2022-09-10T06:54:54.577Z,95.40
2022-09-10T06:57:25.619Z,95.40
2022-09-10T06:59:51.744Z,95.40
2022-09-10T07:02:17.934Z,95.50
2022-09-10T07:04:44.121Z,95.60
2022-09-10T07:07:10.526Z,95.70
2022-09-10T07:09:37.237Z,95.70
2022-09-10T07:12:05.712Z,95.50
2022-09-10T07:14:32.829Z,95.40
2022-09-10T07:16:58.980Z,95.10
2022-09-10T07:19:25.120Z,95.30
2022-09-10T07:21:51.338Z,94.20
2022-09-10T07:24:19.302Z,93.80
2022-09-10T07:26:47.048Z,93.50
2022-09-10T07:29:13.204Z,93.20
2022-09-10T07:31:41.115Z,93.10
2022-09-10T07:34:07.974Z,93.00
2022-09-10T07:36:34.345Z,92.90
2022-09-10T07:39:01.001Z,92.90
2022-09-10T07:41:29.257Z,92.90
2022-09-10T07:43:56.523Z,93.10
2022-09-10T07:46:24.545Z,93.20
2022-09-10T07:48:58.944Z,93.20
2022-09-10T07:51:27.003Z,93.50
2022-09-10T07:53:54.825Z,93.60
2022-09-10T07:56:22.536Z,93.60
2022-09-10T07:58:49.314Z,93.80
2022-09-10T08:01:18.885Z,93.40
2022-09-10T08:03:45.334Z,92.90
2022-09-10T08:06:12.093Z,92.80
2022-09-10T08:08:39.353Z,92.60
2022-09-10T08:11:12.459Z,92.70
2022-09-10T08:13:46.862Z,92.50
2022-09-10T08:16:16.583Z,92.10
2022-09-10T08:18:43.075Z,91.70
2022-09-10T08:21:10.018Z,91.80
2022-09-10T08:23:38.949Z,91.80
2022-09-10T08:26:07.473Z,91.70
2022-09-10T08:28:34.783Z,91.70
2022-09-10T08:31:09.259Z,91.70
2022-09-10T08:33:38.773Z,91.50
2022-09-10T08:36:07.240Z,91.40
2022-09-10T08:38:42.811Z,91.30
2022-09-10T08:41:31.797Z,90.90
2022-09-10T08:44:11.304Z,90.60
2022-09-10T08:46:46.021Z,90.60
2022-09-10T08:49:25.201Z,90.60
2022-09-10T08:52:00.133Z,90.50
2022-09-10T08:54:54.939Z,90.30
2022-09-10T08:57:44.842Z,90.40
2022-09-10T09:00:18.703Z,90.50
2022-09-10T09:02:49.660Z,90.60
2022-09-10T09:05:21.016Z,90.70
2022-09-10T09:07:48.695Z,90.80
2022-09-10T09:10:40.148Z,90.90
2022-09-10T09:13:06.303Z,91.30
2022-09-10T09:15:50.991Z,91.30
2022-09-10T09:18:29.308Z,91.30
2022-09-10T09:21:00.301Z,91.00
2022-09-10T09:24:12.725Z,90.60
2022-09-10T09:26:44.584Z,90.20
2022-09-10T09:29:35.269Z,90.00
2022-09-10T09:32:04.988Z,90.00
2022-09-10T09:34:49.097Z,90.10
2022-09-10T09:37:18.391Z,90.40
2022-09-10T09:40:15.993Z,90.70
2022-09-10T09:45:24.203Z,91.40
2022-09-10T09:47:51.574Z,91.40
2022-09-10T09:50:17.914Z,91.50
2022-09-10T09:52:46.389Z,91.80
2022-09-10T09:55:45.078Z,91.70
2022-09-10T09:58:21.536Z,90.90
2022-09-10T10:01:02.911Z,86.90
2022-09-10T10:03:30.619Z,83.80
2022-09-10T10:06:08.097Z,82.80
2022-09-10T10:08:37.622Z,82.10
2022-09-10T10:11:04.368Z,81.80
2022-09-10T10:13:44.703Z,82.30
2022-09-10T10:16:26.204Z,82.90
2022-09-10T10:18:52.654Z,84.10
2022-09-10T10:21:32.948Z,85.30
2022-09-10T10:24:00.391Z,86.70
2022-09-10T10:26:33.141Z,87.90
2022-09-10T10:28:59.382Z,89.00
2022-09-10T10:31:38.182Z,89.30
2022-09-10T10:34:16.055Z,89.30
2022-09-10T10:37:05.836Z,88.50
2022-09-10T10:40:00.497Z,87.30
2022-09-10T10:42:34.745Z,86.30
2022-09-10T10:45:12.869Z,84.30
2022-09-10T10:47:54.363Z,78.20
2022-09-10T10:50:35.937Z,73.40
2022-09-10T10:53:17.774Z,64.60
2022-09-10T10:55:59.142Z,60.30
2022-09-10T10:58:40.335Z,56.90
2022-09-10T11:01:26.026Z,57.00
2022-09-10T11:04:19.210Z,54.80
2022-09-10T11:06:48.867Z,50.80
2022-09-10T11:09:26.717Z,51.50
2022-09-10T11:12:05.203Z,52.30
2022-09-10T11:14:37.527Z,55.50
2022-09-10T11:17:13.052Z,56.70
2022-09-10T11:19:47.203Z,58.50
2022-09-10T11:22:22.158Z,59.30
2022-09-10T11:24:56.333Z,61.20
2022-09-10T11:27:32.466Z,56.70
2022-09-10T11:30:10.759Z,52.70
2022-09-10T11:32:44.674Z,51.60
2022-09-10T11:35:39.373Z,50.60
2022-09-10T11:38:30.265Z,49.60
2022-09-10T11:41:14.879Z,46.30
2022-09-10T11:43:46.085Z,49.70
2022-09-10T11:46:38.380Z,46.00
2022-09-10T11:49:51.645Z,46.60
2022-09-10T11:52:18.458Z,49.80
2022-09-10T11:54:47.938Z,52.80
2022-09-10T11:57:39.990Z,53.70
2022-09-10T12:00:18.068Z,54.50
2022-09-10T12:03:03.070Z,55.90
2022-09-10T12:15:00.592Z,60.90
2022-09-10T12:17:39.490Z,62.20
2022-09-10T12:20:11.691Z,63.70
2022-09-10T12:22:41.410Z,62.60
2022-09-10T12:25:21.965Z,63.30
2022-09-10T12:27:53.360Z,63.20
2022-09-10T12:39:54.607Z,60.70
2022-09-10T12:42:32.720Z,60.70
2022-09-10T12:44:59.527Z,60.50
2022-09-10T12:47:39.341Z,61.60
2022-09-10T12:50:22.684Z,61.80
2022-09-10T12:52:50.221Z,60.80
2022-09-10T12:55:42.718Z,61.30
2022-09-10T12:59:03.320Z,62.40
2022-09-10T13:01:43.483Z,62.50
2022-09-10T13:04:34.006Z,63.40
2022-09-10T13:07:05.932Z,63.00
2022-09-10T13:09:39.366Z,61.60
2022-09-10T13:12:17.655Z,60.90
2022-09-10T13:14:52.169Z,59.40
2022-09-10T13:17:37.116Z,57.70
2022-09-10T13:20:34.769Z,54.00
2022-09-10T13:23:10.522Z,53.00
2022-09-10T13:25:45.682Z,53.30
2022-09-10T13:28:36.225Z,54.00
2022-09-10T13:31:23.007Z,55.70
2022-09-10T13:33:49.195Z,56.40
2022-09-10T13:36:37.042Z,57.10
2022-09-10T13:39:19.402Z,58.60
2022-09-10T13:41:51.463Z,56.20
2022-09-10T13:44:40.758Z,57.00
2022-09-10T13:47:14.678Z,56.60
2022-09-10T13:49:48.521Z,55.50
2022-09-10T13:52:17.389Z,54.10
2022-09-10T13:54:55.827Z,52.60
2022-09-10T13:57:25.157Z,50.60
2022-09-10T14:00:02.260Z,49.30
2022-09-10T14:02:45.069Z,48.60
2022-09-10T14:05:33.433Z,49.70
2022-09-10T14:08:04.651Z,50.50
2022-09-10T14:10:31.527Z,51.30
2022-09-10T14:12:58.894Z,52.40
2022-09-10T14:15:32.911Z,53.30
2022-09-10T14:17:59.509Z,54.10
2022-09-10T14:20:28.698Z,55.50
2022-09-10T14:23:07.369Z,56.30
2022-09-10T14:25:36.710Z,57.60
2022-09-10T14:28:23.728Z,57.90
2022-09-10T14:30:51.160Z,57.80
2022-09-10T14:33:36.233Z,56.60
2022-09-10T14:36:27.469Z,56.20
2022-09-10T14:39:03.008Z,57.00
2022-09-10T14:41:32.061Z,57.20
2022-09-10T14:44:21.619Z,57.20
2022-09-10T14:46:56.920Z,57.20
2022-09-10T14:49:27.729Z,58.20
2022-09-10T14:51:55.423Z,57.30
2022-09-10T14:54:22.197Z,57.20
2022-09-10T14:56:48.703Z,56.80
2022-09-10T14:59:33.849Z,56.80
2022-09-10T15:02:01.497Z,57.50
2022-09-10T15:04:29.478Z,57.60
2022-09-10T15:06:57.426Z,57.60
2022-09-10T15:09:24.613Z,57.90
2022-09-10T15:12:24.308Z,57.40
2022-09-10T15:14:51.520Z,57.60
2022-09-10T15:17:18.392Z,57.90
2022-09-10T15:19:46.527Z,58.80
2022-09-10T15:22:27.750Z,58.20
2022-09-10T15:25:11.452Z,58.20
2022-09-10T15:27:38.146Z,58.60
2022-09-10T15:30:07.496Z,59.10
2022-09-10T15:32:33.898Z,59.50
2022-09-10T15:35:00.498Z,59.80
2022-09-10T15:37:27.433Z,60.00
2022-09-10T15:39:54.020Z,60.10
2022-09-10T15:42:20.653Z,60.30
2022-09-10T15:44:46.762Z,60.20
2022-09-10T15:47:14.300Z,60.60
2022-09-10T15:49:40.400Z,61.20
2022-09-10T15:52:06.522Z,61.40
2022-09-10T15:54:33.272Z,61.50
2022-09-10T15:57:00.453Z,61.60
2022-09-10T15:59:27.710Z,61.80
2022-09-10T16:01:53.792Z,61.90
2022-09-10T16:04:19.942Z,62.00
2022-09-10T16:06:46.064Z,62.00
2022-09-10T16:09:13.308Z,62.70
2022-09-10T16:11:41.444Z,63.10
2022-09-10T16:14:11.207Z,63.60
2022-09-10T16:16:37.933Z,63.80
2022-09-10T16:19:05.241Z,63.90
2022-09-10T16:21:33.414Z,64.50
2022-09-10T16:24:00.616Z,64.90
2022-09-10T16:26:30.141Z,65.00
2022-09-10T16:28:58.714Z,65.10
2022-09-10T16:31:27.143Z,65.50
2022-09-10T16:33:55.294Z,65.70
2022-09-10T16:36:23.047Z,65.60
2022-09-10T16:38:53.593Z,66.00
2022-09-10T16:41:20.058Z,66.50
2022-09-10T16:43:46.217Z,66.10
2022-09-10T16:46:12.803Z,66.30
2022-09-10T16:48:41.670Z,66.40
2022-09-10T16:51:13.946Z,66.60
2022-09-10T16:53:43.869Z,67.20
2022-09-10T16:56:12.974Z,68.10
2022-09-10T16:58:41.027Z,67.60
2022-09-10T17:01:09.037Z,68.00
2022-09-10T17:03:39.943Z,68.50
2022-09-10T17:06:11.832Z,69.20
2022-09-10T17:08:38.308Z,69.70
2022-09-10T17:11:04.534Z,70.20
2022-09-10T17:13:30.840Z,70.60
2022-09-10T17:16:22.297Z,70.90
2022-09-10T17:19:00.449Z,71.40
2022-09-10T17:21:28.320Z,71.20
2022-09-10T17:23:55.364Z,72.30
2022-09-10T17:26:23.524Z,72.30
2022-09-10T17:29:01.487Z,72.80
2022-09-10T17:31:29.201Z,73.50
2022-09-10T17:33:56.219Z,73.90
2022-09-10T17:36:22.825Z,74.40
2022-09-10T17:38:49.189Z,74.50
2022-09-10T17:41:15.457Z,74.70
2022-09-10T17:43:43.147Z,75.50
2022-09-10T17:46:12.172Z,75.30
2022-09-10T17:48:39.124Z,75.30
2022-09-10T17:51:06.540Z,75.50
2022-09-10T17:53:34.419Z,75.80
2022-09-10T17:56:09.523Z,76.00
2022-09-10T17:58:35.746Z,76.50
2022-09-10T18:01:07.195Z,76.60
2022-09-10T18:03:34.556Z,77.10
2022-09-10T18:06:05.231Z,77.40
2022-09-10T18:08:32.580Z,77.90
2022-09-10T18:11:22.482Z,78.20
2022-09-10T18:13:51.393Z,78.70
2022-09-10T18:16:20.873Z,78.90
2022-09-10T18:18:55.356Z,79.30
2022-09-10T18:21:24.540Z,79.70
2022-09-10T18:23:54.994Z,79.90
2022-09-10T18:26:24.627Z,80.20
2022-09-10T18:29:07.119Z,80.60
2022-09-10T18:31:39.631Z,81.00
2022-09-10T18:34:08.709Z,81.20
2022-09-10T18:36:34.971Z,81.50
2022-09-10T18:39:06.268Z,81.60
2022-09-10T18:41:35.736Z,82.00
2022-09-10T18:44:05.384Z,82.10
2022-09-10T18:46:32.337Z,82.00
2022-09-10T18:48:59.056Z,82.60
2022-09-10T18:51:27.220Z,83.10
2022-09-10T18:53:59.257Z,83.60
2022-09-10T18:56:30.660Z,84.00
2022-09-10T18:58:58.628Z,84.30
2022-09-10T19:01:27.189Z,84.40
2022-09-10T19:03:54.449Z,84.10
2022-09-10T19:06:23.213Z,84.70
2022-09-10T19:09:03.647Z,85.30
2022-09-10T19:11:38.112Z,86.00
2022-09-10T19:14:07.690Z,86.50
2022-09-10T19:16:35.424Z,86.90
2022-09-10T19:19:04.864Z,87.40
2022-09-10T19:21:32.163Z,87.80
2022-09-10T19:23:59.983Z,87.80
2022-09-10T19:26:27.939Z,87.80
2022-09-10T19:28:56.913Z,88.00
2022-09-10T19:31:24.574Z,88.20
2022-09-10T19:33:58.908Z,88.60
2022-09-10T19:36:27.868Z,88.50
2022-09-10T19:38:54.334Z,88.70
2022-09-10T19:41:21.120Z,88.80
2022-09-10T19:43:49.715Z,89.10
2022-09-10T19:46:17.334Z,89.30
2022-09-10T19:48:44.625Z,89.50
2022-09-10T19:51:13.560Z,89.70
2022-09-10T19:53:40.556Z,89.90
2022-09-10T19:56:18.170Z,90.00
2022-09-10T19:58:51.478Z,90.20
2022-09-10T20:01:20.605Z,90.20
2022-09-10T20:03:47.612Z,90.40
2022-09-10T20:06:17.593Z,90.50
2022-09-10T20:08:45.077Z,90.50
2022-09-10T20:11:19.531Z,90.40
2022-09-10T20:13:45.936Z,90.50
2022-09-10T20:16:12.506Z,90.50
2022-09-10T20:18:39.380Z,90.60
2022-09-10T20:21:17.575Z,90.60
2022-09-10T20:23:50.217Z,90.70
2022-09-10T20:26:28.259Z,90.80
2022-09-10T20:29:00.183Z,90.90
2022-09-10T20:31:28.186Z,91.00
2022-09-10T20:34:02.898Z,91.00
2022-09-10T20:36:30.607Z,91.10
2022-09-10T20:38:57.375Z,91.10
2022-09-10T20:41:25.165Z,91.20
2022-09-10T20:43:53.039Z,91.30
2022-09-10T20:46:21.643Z,91.30
2022-09-10T20:48:49.362Z,91.50
2022-09-10T20:51:19.926Z,91.50
2022-09-10T20:53:46.800Z,91.60
2022-09-10T20:56:16.840Z,91.70
2022-09-10T20:58:43.982Z,91.70
2022-09-10T21:01:15.787Z,91.80
2022-09-10T21:03:42.381Z,91.80
2022-09-10T21:06:10.006Z,91.80
2022-09-10T21:08:37.843Z,91.90
2022-09-10T21:11:07.561Z,91.90
2022-09-10T21:13:37.952Z,91.90
2022-09-10T21:16:10.650Z,91.90
2022-09-10T21:18:38.010Z,91.90
2022-09-10T21:21:09.053Z,92.00
2022-09-10T21:23:40.241Z,92.00
2022-09-10T21:26:06.964Z,92.00
2022-09-10T21:28:34.901Z,92.10
2022-09-10T21:31:02.694Z,92.20
2022-09-10T21:33:29.194Z,92.20
2022-09-10T21:36:02.044Z,92.20
2022-09-10T21:38:28.458Z,92.20
2022-09-10T21:40:56.853Z,92.30
2022-09-10T21:43:27.272Z,92.30
2022-09-10T21:45:56.089Z,92.40
2022-09-10T21:48:22.616Z,92.50
2022-09-10T21:50:59.946Z,92.50
2022-09-10T21:53:27.149Z,92.50
2022-09-10T21:55:55.229Z,92.50
2022-09-10T21:58:22.302Z,92.50
2022-09-10T22:00:49.283Z,92.50
2022-09-10T22:03:16.357Z,92.50
2022-09-10T22:05:42.638Z,92.50
2022-09-10T22:08:08.780Z,92.60
2022-09-10T22:10:39.778Z,92.60
2022-09-10T22:13:05.960Z,93.00
2022-09-10T22:15:38.008Z,92.80
2022-09-10T22:18:04.274Z,93.00
2022-09-10T22:20:32.532Z,93.10
2022-09-10T22:22:58.780Z,93.00
2022-09-10T22:25:24.817Z,93.10
2022-09-10T22:27:51.599Z,93.10
2022-09-10T22:30:17.924Z,93.10
2022-09-10T22:32:43.953Z,93.10
2022-09-10T22:35:10.051Z,93.10
2022-09-10T22:37:36.305Z,92.90
2022-09-10T22:40:03.069Z,93.00
2022-09-10T22:42:30.317Z,92.90
2022-09-10T22:44:56.633Z,93.00
2022-09-10T22:47:22.773Z,93.00
2022-09-10T22:49:48.791Z,93.00
2022-09-10T22:52:15.140Z,93.10
2022-09-10T22:54:44.468Z,93.20
2022-09-10T22:57:10.539Z,93.20
2022-09-10T22:59:36.889Z,93.20
2022-09-10T23:02:04.158Z,93.20
2022-09-10T23:04:30.892Z,93.20
2022-09-10T23:06:56.921Z,93.20
2022-09-10T23:09:23.226Z,93.10
2022-09-10T23:11:49.233Z,93.20
2022-09-10T23:14:18.505Z,93.20
2022-09-10T23:16:51.089Z,93.30
2022-09-10T23:19:20.226Z,93.30
2022-09-10T23:21:48.911Z,93.30
2022-09-10T23:24:17.564Z,93.40
2022-09-10T23:26:44.346Z,93.40
2022-09-10T23:29:11.083Z,93.30
2022-09-10T23:31:39.128Z,93.30
2022-09-10T23:34:07.635Z,93.40
2022-09-10T23:36:36.405Z,93.30
2022-09-10T23:39:05.870Z,93.30
2022-09-10T23:41:32.506Z,93.30
2022-09-10T23:43:59.032Z,93.40
2022-09-10T23:46:25.345Z,93.40
2022-09-10T23:48:52.129Z,93.40
2022-09-10T23:51:20.224Z,93.40
2022-09-10T23:53:47.326Z,93.50
2022-09-10T23:56:16.124Z,93.50
2022-09-10T23:58:42.481Z,93.50
